Terminal Aerodrome Forecast
Issued by NWS

Home | Current Version | Previous Version | Text Only | Print | Product List | Glossary On
Versions: 1 2 3 4 5 6 7 8 9 10 11 12 13
000
FTUS43 KDTX 202000 AAA
TAFMBS
TAF AMD
KMBS 202050Z 2021/2118 23015G25KT P6SM SCT040 BKN120 BKN250
     FM202200 24012KT 6SM SHRA BKN035 BKN100
      TEMPO 2022/2024 4SM TSRA BKN028CB OVC035
     FM210100 24008KT P6SM BKN030 OVC050
     FM210700 22005KT 4SM -SHRA BR BKN010 OVC030
     FM211300 30010KT 5SM BR BKN015 OVC030=

USA.gov is the U.S. government's official web portal to all federal, state and local government web resources and services.